Flight Track Log - Related Links

Times and Time Zones

All times are in EST time to prevent confusion due to time zone crossing. See the UCA3596 flight status page for this flight to view local times or setup timezone preferences in your user account.

Time Position Orientation Groundspeed Altitude Reporting Facility
EST Latitude Longitude Course Direction KTS MPH feet Rate Location/Type
Tue 06:43:18 PM 42.1569 -76.0692 212° Southwest 235 270 5,200  Level New York Center
Tue 06:44:18 PM 42.1061 -76.0931 199° South 197 227 6,900 1,700 Climbing New York Center
Tue 06:45:18 PM 42.0728 -76.1350 223° Southwest 191 220 8,600 1,550 Climbing New York Center
Tue 06:46:18 PM 42.0378 -76.1769 222° Southwest 175 201 10,000 1,500 Climbing New York Center
Tue 06:47:00 PM 41.9195 -76.1171 212° Southwest  Level Estimated
Tue 06:47:18 PM 42.0008 -76.2100 214° Southwest 181 208 11,600  Level New York Center
Tue 06:48:18 PM 41.9558 -76.2372 204° Southwest 186 214 13,000 1,550 Climbing New York Center
Tue 06:49:18 PM 41.9003 -76.2686 203° Southwest 191 220 14,700 1,500 Climbing New York Center
Tue 06:50:18 PM 41.8531 -76.2956 203° Southwest 191 220 16,000 650 Climbing New York Center
Tue 06:51:18 PM 41.8039 -76.3247 204° Southwest 203 234 16,000 50 Level New York Center
Tue 06:52:18 PM 41.7461 -76.3561 202° Southwest 220 253 16,100 100 Climbing New York Center
Tue 06:53:18 PM 41.6756 -76.3947 202° Southwest 234 269 16,200 50 Climbing New York Center
Tue 06:54:18 PM 41.6178 -76.4286 204° Southwest 240 276 16,200  Level New York Center
Tue 06:55:18 PM 41.5581 -76.4597 201° Southwest 240 276 16,200 -100 Level New York Center
Tue 06:56:18 PM 41.5003 -76.4936 204° Southwest 240 276 16,000 -100 Descending New York Center
Tue 06:57:18 PM 41.4317 -76.5319 203° Southwest 240 276 16,000  Level New York Center
Tue 06:58:18 PM 41.3717 -76.5656 203° Southwest 240 276 16,000  Level New York Center
Tue 06:59:18 PM 41.3097 -76.5989 202° Southwest 240 276 16,000  Level New York Center
Tue 07:00:18 PM 41.2561 -76.6275 202° Southwest 240 276 16,000  Level New York Center
Tue 07:01:18 PM 41.1961 -76.6608 203° Southwest 240 276 16,000  Level New York Center
Tue 07:02:18 PM 41.1275 -76.6989 203° Southwest 240 276 16,000  Level New York Center
Tue 07:03:18 PM 41.0675 -76.7350 204° Southwest 240 276 16,000  Level New York Center
Tue 07:04:18 PM 41.0075 -76.7656 201° Southwest 240 276 16,000  Level New York Center
Tue 07:05:18 PM 40.9475 -76.7986 203° Southwest 240 276 16,000  Level New York Center
Tue 07:06:18 PM 40.8875 -76.8317 203° Southwest 240 276 16,000  Level New York Center
Tue 07:07:18 PM 40.8339 -76.8628 204° Southwest 240 276 16,000 -50 Level New York Center
Tue 07:08:18 PM 40.7633 -76.8947 199° South 240 276 15,900 -50 Descending New York Center
Tue 07:09:18 PM 40.7019 -76.9139 193° South 246 283 15,900 50 Level New York Center
Tue 07:10:18 PM 40.6278 -76.9375 194° South 251 289 16,000 50 Climbing New York Center
Tue 07:11:18 PM 40.5686 -76.9539 192° South 251 289 16,000  Level New York Center
Tue 07:12:18 PM 40.4944 -76.9772 193° South 251 289 16,000  Level New York Center
Tue 07:13:18 PM 40.4328 -76.9964 193° South 251 289 16,000 -400 Level New York Center
Tue 07:14:18 PM 40.3567 -77.0194 193° South 251 289 15,200 -932 Descending New York Center
Tue 07:16:44 PM 40.1833 -77.0667 192° South 264 304 12,800 -990 Descending Potomac TRACON
Tue 07:17:44 PM 40.1167 -77.1000 201° Southwest 259 298 11,800 -1,000 Descending Potomac TRACON
Tue 07:18:44 PM 40.0500 -77.1167 191° South 264 304 10,800 -1,000 Descending Potomac TRACON
Tue 07:19:44 PM 39.9833 -77.1333 191° South 259 298 9,800 -850 Descending Potomac TRACON
Tue 07:20:44 PM 39.9000 -77.1500 189° South 254 292 9,100 -632 Descending Potomac TRACON
Tue 07:21:38 PM 39.8500 -77.1667 194° South 247 284 8,600 -789 Descending Potomac TRACON
Tue 07:22:38 PM 39.7833 -77.2000 201° Southwest 243 280 7,600 -800 Descending Potomac TRACON
Tue 07:23:38 PM 39.7167 -77.2167 191° South 245 282 7,000 -300 Descending Potomac TRACON
Tue 07:24:38 PM 39.6667 -77.2500 207° Southwest 223 257 7,000 -50 Level Potomac TRACON
Tue 07:25:38 PM 39.6333 -77.3167 237° Southwest 217 250 6,900 -350 Descending Potomac TRACON
Tue 07:26:38 PM 39.5833 -77.3500 207° Southwest 232 267 6,300 -750 Descending Potomac TRACON
Tue 07:27:38 PM 39.5167 -77.3500 180° South 248 285 5,400 -1,000 Descending Potomac TRACON
Tue 07:28:44 PM 39.4333 -77.3667 189° South 244 281 4,200 -619 Descending Potomac TRACON
Tue 07:29:44 PM 39.3667 -77.3667 180° South 241 277 4,100 -50 Descending Potomac TRACON
Tue 07:30:44 PM 39.3000 -77.3667 180° South 228 262 4,100  Level Potomac TRACON
Tue 07:31:38 PM 39.2500 -77.3667 180° South 227 261 4,100 -50 Level Potomac TRACON
Tue 07:32:44 PM 39.1667 -77.3667 180° South 228 262 4,000 -47 Descending Potomac TRACON
Tue 07:33:45 PM 39.1000 -77.3667 180° South 229 264 4,000 -150 Level Potomac TRACON
Tue 07:34:44 PM 39.0333 -77.3500 169° South 228 262 3,700 -400 Descending Potomac TRACON
Tue 07:35:45 PM 38.9833 -77.3667 195° South 229 264 3,200 -313 Descending Potomac TRACON
Tue 07:36:39 PM 38.9167 -77.3500 169° South 230 265 3,100 -372 Descending Potomac TRACON
Tue 07:37:38 PM 38.8667 -77.3667 195° South 227 261 2,500 -500 Descending Potomac TRACON
Tue 07:38:39 PM 38.8167 -77.4000 207° Southwest 220 253 2,100 -248 Descending Potomac TRACON
Tue 07:39:39 PM 38.8500 -77.4333 322° Northwest 136 157 2,000 -400 Descending Potomac TRACON
Tue 07:40:39 PM 38.8833 -77.4333 360° North 96 110 1,300 -650 Descending Potomac TRACON
Tue 07:41:39 PM 38.9167 -77.4333 360° North 101 116 700 -600 Descending Potomac TRACON
Tue 07:43:00 PM 38.9333 -77.4500 349° North  Level FlightAware Approximate
Tue 07:50:00 PM 38.9474 -77.4599 349° North  Level Estimated

Login

Don't have an account? Register now (free) for customized features, flight alerts, and more!